UKV7107 EGSS-EFHK
Flight info
| Callsign | UKV7107 |
|---|---|
| Flight time | 2h 13m |
| Altitude | 31000 |
| Route | CLN P44 SOMVA DCT MAVAS DCT PETIK DCT ANDIK N873 JUIST DCT DOSUR DCT RASMU DCT ROGMI DCT ALAMI DCT OKEVU DCT EVADI Y370 DIVAM |
| Aircraft | B77L/H-SDE1E2E3FGHIJ2J3J4J5M1RWXYZ/LB1D1 |
Departure
| Time | 2026-05-04 04:12 |
|---|---|
| Airport | London Stansted Airport (EGSS) |
Arrival
| Time | 2026-05-04 06:26 |
|---|---|
| Airport | Helsinki Vantaa Airport (EFHK) |
| Time | Latitude | Longitude | Altitude | Speed | Heading |
|---|---|---|---|---|---|
| 2026-05-04 03:50 | 51.88688 | 0.25227 | 358 ft | 0 kts | 223° |
| 2026-05-04 04:05 | 51.88700 | 0.25245 | 358 ft | 3 kts | 223° |
| 2026-05-04 04:05 | 51.88713 | 0.25265 | 358 ft | 3 kts | 223° |
| 2026-05-04 04:05 | 51.88725 | 0.25288 | 358 ft | 3 kts | 243° |
| 2026-05-04 04:05 | 51.88731 | 0.25316 | 358 ft | 3 kts | 262° |
| 2026-05-04 04:06 | 51.88732 | 0.25345 | 358 ft | 3 kts | 282° |
| 2026-05-04 04:06 | 51.88726 | 0.25373 | 358 ft | 3 kts | 301° |
| 2026-05-04 04:06 | 51.88720 | 0.25388 | 358 ft | 0 kts | 314° |
| 2026-05-04 04:07 | 51.88722 | 0.25385 | 348 ft | 3 kts | 314° |
| 2026-05-04 04:08 | 51.88767 | 0.25313 | 358 ft | 16 kts | 315° |
| 2026-05-04 04:08 | 51.88849 | 0.25175 | 356 ft | 17 kts | 313° |
| 2026-05-04 04:08 | 51.88931 | 0.25034 | 357 ft | 17 kts | 311° |
| 2026-05-04 04:08 | 51.89002 | 0.24879 | 356 ft | 16 kts | 310° |
| 2026-05-04 04:09 | 51.89064 | 0.24823 | 357 ft | 8 kts | 18° |
| 2026-05-04 04:09 | 51.89108 | 0.24871 | 357 ft | 8 kts | 43° |
| 2026-05-04 04:09 | 51.89153 | 0.24941 | 357 ft | 9 kts | 43° |
| 2026-05-04 04:09 | 51.89201 | 0.25014 | 352 ft | 9 kts | 47° |
| 2026-05-04 04:10 | 51.89238 | 0.25101 | 358 ft | 9 kts | 57° |
| 2026-05-04 04:10 | 51.89276 | 0.25189 | 358 ft | 9 kts | 49° |
| 2026-05-04 04:10 | 51.89326 | 0.25258 | 357 ft | 9 kts | 26° |
| 2026-05-04 04:10 | 51.89381 | 0.25214 | 357 ft | 10 kts | 313° |
| 2026-05-04 04:11 | 51.89427 | 0.25136 | 355 ft | 10 kts | 313° |
| 2026-05-04 04:11 | 51.89474 | 0.25055 | 353 ft | 11 kts | 313° |
| 2026-05-04 04:11 | 51.89492 | 0.24975 | 352 ft | 8 kts | 248° |
| 2026-05-04 04:11 | 51.89441 | 0.24884 | 351 ft | 20 kts | 225° |
| 2026-05-04 04:12 | 51.89172 | 0.24482 | 351 ft | 92 kts | 223° |
| 2026-05-04 04:12 | 51.88519 | 0.23501 | 352 ft | 163 kts | 223° |
| 2026-05-04 04:12 | 51.87577 | 0.22064 | 630 ft | 193 kts | 225° |
| 2026-05-04 04:12 | 51.86590 | 0.20563 | 1429 ft | 195 kts | 224° |
| 2026-05-04 04:13 | 51.85492 | 0.19297 | 2140 ft | 198 kts | 202° |
| 2026-05-04 04:13 | 51.84090 | 0.19088 | 2552 ft | 211 kts | 168° |
| 2026-05-04 04:13 | 51.82766 | 0.20188 | 3023 ft | 220 kts | 139° |
| 2026-05-04 04:13 | 51.81794 | 0.22088 | 3597 ft | 226 kts | 117° |
| 2026-05-04 04:14 | 51.81308 | 0.24531 | 4002 ft | 238 kts | 96° |
| 2026-05-04 04:14 | 51.81382 | 0.27336 | 4242 ft | 260 kts | 82° |
| 2026-05-04 04:14 | 51.81569 | 0.30311 | 4779 ft | 271 kts | 86° |
| 2026-05-04 04:14 | 51.81696 | 0.33385 | 5483 ft | 277 kts | 87° |
| 2026-05-04 04:15 | 51.81821 | 0.36507 | 6300 ft | 279 kts | 87° |
| 2026-05-04 04:15 | 51.81950 | 0.39655 | 7065 ft | 282 kts | 87° |
| 2026-05-04 04:15 | 51.82081 | 0.42838 | 7794 ft | 286 kts | 87° |
| 2026-05-04 04:15 | 51.82214 | 0.46056 | 8520 ft | 289 kts | 87° |
| 2026-05-04 04:16 | 51.82349 | 0.49322 | 9271 ft | 292 kts | 88° |
| 2026-05-04 04:16 | 51.82484 | 0.52619 | 10011 ft | 296 kts | 88° |
| 2026-05-04 04:16 | 51.82620 | 0.55986 | 10477 ft | 309 kts | 88° |
| 2026-05-04 04:16 | 51.82763 | 0.59590 | 10653 ft | 333 kts | 88° |
| 2026-05-04 04:17 | 51.82917 | 0.63458 | 10848 ft | 356 kts | 88° |
| 2026-05-04 04:17 | 51.83080 | 0.67577 | 11149 ft | 375 kts | 88° |
| 2026-05-04 04:17 | 51.83249 | 0.71861 | 11745 ft | 386 kts | 88° |
| 2026-05-04 04:17 | 51.83420 | 0.76245 | 12492 ft | 392 kts | 88° |
| 2026-05-04 04:18 | 51.83591 | 0.80664 | 13335 ft | 397 kts | 88° |
| 2026-05-04 04:18 | 51.83755 | 0.85088 | 14102 ft | 401 kts | 88° |
| 2026-05-04 04:18 | 51.83918 | 0.89611 | 14820 ft | 406 kts | 88° |
| 2026-05-04 04:18 | 51.84081 | 0.94202 | 15558 ft | 410 kts | 88° |
| 2026-05-04 04:19 | 51.84244 | 0.98814 | 16277 ft | 414 kts | 89° |
| 2026-05-04 04:19 | 51.84410 | 1.03488 | 17004 ft | 418 kts | 89° |
| 2026-05-04 04:19 | 51.84575 | 1.08219 | 17717 ft | 422 kts | 89° |
| 2026-05-04 04:19 | 51.84747 | 1.12976 | 18373 ft | 425 kts | 87° |
| 2026-05-04 04:20 | 51.85359 | 1.17689 | 18841 ft | 433 kts | 70° |
| 2026-05-04 04:20 | 51.86583 | 1.22186 | 19299 ft | 440 kts | 66° |
| 2026-05-04 04:20 | 51.87886 | 1.26701 | 19866 ft | 444 kts | 66° |
| 2026-05-04 04:20 | 51.89185 | 1.31258 | 20497 ft | 447 kts | 66° |
| 2026-05-04 04:21 | 51.90467 | 1.35865 | 21085 ft | 451 kts | 67° |
| 2026-05-04 04:21 | 51.91740 | 1.40545 | 21663 ft | 456 kts | 68° |
| 2026-05-04 04:21 | 51.93011 | 1.45279 | 22180 ft | 461 kts | 68° |
| 2026-05-04 04:21 | 51.94274 | 1.50020 | 22739 ft | 465 kts | 68° |
| 2026-05-04 04:22 | 51.95558 | 1.54854 | 23293 ft | 469 kts | 68° |
| 2026-05-04 04:22 | 51.96857 | 1.59737 | 23779 ft | 473 kts | 68° |
| 2026-05-04 04:22 | 51.98167 | 1.64675 | 24230 ft | 478 kts | 68° |
| 2026-05-04 04:22 | 51.99533 | 1.69613 | 24648 ft | 483 kts | 65° |
| 2026-05-04 04:23 | 52.01124 | 1.74444 | 25062 ft | 488 kts | 63° |
| 2026-05-04 04:23 | 52.02783 | 1.79278 | 25471 ft | 492 kts | 62° |
| 2026-05-04 04:23 | 52.04456 | 1.84148 | 25883 ft | 497 kts | 63° |
| 2026-05-04 04:23 | 52.06134 | 1.89099 | 26297 ft | 501 kts | 63° |
| 2026-05-04 04:24 | 52.07799 | 1.94074 | 26702 ft | 505 kts | 63° |
| 2026-05-04 04:24 | 52.09480 | 1.99142 | 27100 ft | 509 kts | 64° |
| 2026-05-04 04:24 | 52.11137 | 2.04176 | 27484 ft | 513 kts | 64° |
| 2026-05-04 04:24 | 52.12843 | 2.09383 | 27867 ft | 517 kts | 64° |
| 2026-05-04 04:25 | 52.14541 | 2.14573 | 28255 ft | 521 kts | 64° |
| 2026-05-04 04:25 | 52.16221 | 2.19714 | 28621 ft | 524 kts | 64° |
| 2026-05-04 04:25 | 52.17938 | 2.24974 | 28987 ft | 527 kts | 64° |
| 2026-05-04 04:25 | 52.19666 | 2.30274 | 29389 ft | 529 kts | 64° |
| 2026-05-04 04:26 | 52.21391 | 2.35576 | 29887 ft | 529 kts | 64° |
| 2026-05-04 04:26 | 52.23112 | 2.40877 | 30355 ft | 529 kts | 64° |
| 2026-05-04 04:26 | 52.24828 | 2.46173 | 30822 ft | 527 kts | 64° |
| 2026-05-04 04:26 | 52.26543 | 2.51479 | 30982 ft | 531 kts | 64° |
| 2026-05-04 04:27 | 52.29933 | 2.62165 | 30953 ft | 526 kts | 68° |
| 2026-05-04 04:27 | 52.32411 | 2.73323 | 30956 ft | 521 kts | 77° |
| 2026-05-04 04:28 | 52.34345 | 2.84764 | 30949 ft | 522 kts | 78° |
| 2026-05-04 04:28 | 52.36323 | 2.96239 | 30948 ft | 524 kts | 77° |
| 2026-05-04 04:29 | 52.38336 | 3.07710 | 30940 ft | 525 kts | 77° |
| 2026-05-04 04:29 | 52.40374 | 3.19144 | 30934 ft | 527 kts | 75° |
| 2026-05-04 04:30 | 52.42732 | 3.30530 | 30931 ft | 528 kts | 73° |
| 2026-05-04 04:30 | 52.45169 | 3.41891 | 30956 ft | 528 kts | 73° |
| 2026-05-04 04:31 | 52.47571 | 3.53294 | 30946 ft | 528 kts | 74° |
| 2026-05-04 04:31 | 52.49932 | 3.64704 | 30936 ft | 528 kts | 74° |
| 2026-05-04 04:32 | 52.52276 | 3.76114 | 30935 ft | 527 kts | 74° |
| 2026-05-04 04:32 | 52.54610 | 3.87528 | 30950 ft | 527 kts | 74° |
| 2026-05-04 04:33 | 52.56924 | 3.98903 | 30954 ft | 527 kts | 74° |
| 2026-05-04 04:33 | 52.59236 | 4.10332 | 30952 ft | 527 kts | 74° |
| 2026-05-04 04:34 | 52.61499 | 4.21786 | 30953 ft | 526 kts | 77° |
| 2026-05-04 04:34 | 52.62827 | 4.31596 | 30945 ft | 523 kts | 82° |
| 2026-05-04 04:35 | 52.64155 | 4.43143 | 30942 ft | 523 kts | 83° |
| 2026-05-04 04:35 | 52.65151 | 4.51766 | 30943 ft | 524 kts | 82° |
| 2026-05-04 04:36 | 52.65882 | 4.57978 | 30937 ft | 524 kts | 82° |
| 2026-05-04 04:36 | 52.67279 | 4.69768 | 30942 ft | 524 kts | 82° |
| 2026-05-04 04:37 | 52.70048 | 4.93397 | 30944 ft | 525 kts | 82° |
| 2026-05-04 04:38 | 52.71411 | 5.05219 | 30944 ft | 525 kts | 82° |
| 2026-05-04 04:38 | 52.72768 | 5.17047 | 30955 ft | 525 kts | 81° |
| 2026-05-04 04:39 | 52.75162 | 5.28383 | 30954 ft | 530 kts | 64° |
| 2026-05-04 04:39 | 52.79231 | 5.38492 | 30957 ft | 530 kts | 50° |
| 2026-05-04 04:40 | 52.83873 | 5.47992 | 30944 ft | 530 kts | 52° |
| 2026-05-04 04:40 | 52.88401 | 5.57605 | 30953 ft | 529 kts | 52° |
| 2026-05-04 04:41 | 52.92885 | 5.67273 | 30945 ft | 529 kts | 52° |
| 2026-05-04 04:41 | 52.97365 | 5.76955 | 30947 ft | 528 kts | 52° |
| 2026-05-04 04:42 | 53.01806 | 5.86570 | 30936 ft | 527 kts | 52° |
| 2026-05-04 04:42 | 53.06255 | 5.96237 | 30940 ft | 526 kts | 53° |
| 2026-05-04 04:43 | 53.10696 | 6.05920 | 30938 ft | 525 kts | 53° |
| 2026-05-04 04:43 | 53.15128 | 6.15589 | 30944 ft | 524 kts | 53° |
| 2026-05-04 04:44 | 53.19517 | 6.25179 | 30935 ft | 523 kts | 53° |
| 2026-05-04 04:44 | 53.23949 | 6.34908 | 30942 ft | 523 kts | 53° |
| 2026-05-04 04:45 | 53.28309 | 6.44520 | 30941 ft | 522 kts | 53° |
| 2026-05-04 04:47 | 53.45448 | 6.75208 | 30953 ft | 521 kts | 41° |
| 2026-05-04 04:47 | 53.50647 | 6.83194 | 30955 ft | 520 kts | 42° |
| 2026-05-04 04:48 | 53.55958 | 6.91463 | 30955 ft | 520 kts | 42° |
| 2026-05-04 04:49 | 53.68779 | 7.12908 | 30946 ft | 520 kts | 45° |
| 2026-05-04 04:49 | 53.73874 | 7.21587 | 30957 ft | 520 kts | 45° |
| 2026-05-04 04:50 | 53.78976 | 7.30251 | 30941 ft | 520 kts | 45° |
| 2026-05-04 04:50 | 53.84082 | 7.38939 | 30950 ft | 520 kts | 45° |
| 2026-05-04 04:51 | 53.89180 | 7.47651 | 30949 ft | 520 kts | 45° |
| 2026-05-04 04:51 | 53.94226 | 7.56311 | 30944 ft | 520 kts | 45° |
| 2026-05-04 04:52 | 53.99302 | 7.65052 | 30956 ft | 519 kts | 45° |
| 2026-05-04 04:52 | 54.04376 | 7.73824 | 30954 ft | 519 kts | 45° |
| 2026-05-04 04:53 | 54.09433 | 7.82599 | 30952 ft | 519 kts | 45° |
| 2026-05-04 04:53 | 54.14491 | 7.91408 | 30938 ft | 520 kts | 45° |
| 2026-05-04 04:54 | 54.19547 | 8.00247 | 30949 ft | 520 kts | 45° |
| 2026-05-04 04:54 | 54.24569 | 8.09058 | 30946 ft | 520 kts | 45° |
| 2026-05-04 04:55 | 54.29607 | 8.17929 | 30939 ft | 520 kts | 45° |
| 2026-05-04 04:55 | 54.34646 | 8.26837 | 30939 ft | 520 kts | 45° |
| 2026-05-04 04:56 | 54.39654 | 8.35724 | 30928 ft | 520 kts | 45° |
| 2026-05-04 04:56 | 54.44680 | 8.44675 | 30930 ft | 520 kts | 45° |
| 2026-05-04 04:57 | 54.49697 | 8.53644 | 30921 ft | 520 kts | 45° |
| 2026-05-04 04:57 | 54.54715 | 8.62650 | 30924 ft | 520 kts | 45° |
| 2026-05-04 04:58 | 54.59712 | 8.71652 | 30914 ft | 520 kts | 46° |
| 2026-05-04 04:58 | 54.64710 | 8.80690 | 30914 ft | 520 kts | 46° |
| 2026-05-04 04:59 | 54.69693 | 8.89734 | 30902 ft | 520 kts | 46° |
| 2026-05-04 04:59 | 54.74672 | 8.98808 | 30907 ft | 519 kts | 46° |
| 2026-05-04 05:00 | 54.79604 | 9.07830 | 30897 ft | 519 kts | 46° |
| 2026-05-04 05:01 | 54.86973 | 9.21610 | 30897 ft | 519 kts | 50° |
| 2026-05-04 05:01 | 54.91449 | 9.31484 | 30901 ft | 519 kts | 52° |
| 2026-05-04 05:02 | 54.95844 | 9.41457 | 30904 ft | 519 kts | 52° |
| 2026-05-04 05:02 | 55.00226 | 9.51376 | 30909 ft | 520 kts | 52° |
| 2026-05-04 05:03 | 55.04647 | 9.61344 | 30911 ft | 520 kts | 52° |
| 2026-05-04 05:04 | 55.13481 | 9.81337 | 30910 ft | 520 kts | 52° |
| 2026-05-04 05:04 | 55.17895 | 9.91395 | 30899 ft | 520 kts | 52° |
| 2026-05-04 05:06 | 55.35436 | 10.31785 | 30862 ft | 521 kts | 52° |
| 2026-05-04 05:07 | 55.39810 | 10.41961 | 30865 ft | 520 kts | 52° |
| 2026-05-04 05:07 | 55.44169 | 10.52142 | 30861 ft | 520 kts | 52° |
| 2026-05-04 05:09 | 55.63606 | 10.98070 | 30867 ft | 518 kts | 52° |
| 2026-05-04 05:10 | 55.67893 | 11.08314 | 30849 ft | 518 kts | 52° |
| 2026-05-04 05:10 | 55.72177 | 11.18598 | 30870 ft | 517 kts | 52° |
| 2026-05-04 05:11 | 55.76453 | 11.28904 | 30855 ft | 518 kts | 52° |
| 2026-05-04 05:11 | 55.80693 | 11.39165 | 30851 ft | 518 kts | 52° |
| 2026-05-04 05:12 | 55.84949 | 11.49510 | 30851 ft | 518 kts | 53° |
| 2026-05-04 05:12 | 55.89205 | 11.59898 | 30847 ft | 518 kts | 53° |
| 2026-05-04 05:13 | 55.93447 | 11.70296 | 30850 ft | 519 kts | 53° |
| 2026-05-04 05:13 | 55.97686 | 11.80732 | 30838 ft | 519 kts | 53° |
| 2026-05-04 05:14 | 56.01888 | 11.91120 | 30840 ft | 519 kts | 53° |
| 2026-05-04 05:14 | 56.06106 | 12.01594 | 30831 ft | 519 kts | 53° |
| 2026-05-04 05:15 | 56.10323 | 12.12109 | 30836 ft | 519 kts | 53° |
| 2026-05-04 05:15 | 56.14531 | 12.22648 | 30824 ft | 519 kts | 53° |
| 2026-05-04 05:16 | 56.18700 | 12.33132 | 30821 ft | 519 kts | 53° |
| 2026-05-04 05:16 | 56.22881 | 12.43695 | 30815 ft | 519 kts | 53° |
| 2026-05-04 05:17 | 56.27056 | 12.54287 | 30812 ft | 519 kts | 53° |
| 2026-05-04 05:17 | 56.31228 | 12.64916 | 30809 ft | 519 kts | 53° |
| 2026-05-04 05:18 | 56.35390 | 12.75567 | 30803 ft | 519 kts | 53° |
| 2026-05-04 05:18 | 56.39512 | 12.86165 | 30802 ft | 519 kts | 53° |
| 2026-05-04 05:19 | 56.43647 | 12.96839 | 30807 ft | 519 kts | 53° |
| 2026-05-04 05:19 | 56.47783 | 13.07564 | 30799 ft | 519 kts | 53° |
| 2026-05-04 05:20 | 56.51904 | 13.18297 | 30804 ft | 519 kts | 53° |
| 2026-05-04 05:20 | 56.56019 | 13.29065 | 30791 ft | 519 kts | 53° |
| 2026-05-04 05:21 | 56.60100 | 13.39787 | 30799 ft | 520 kts | 54° |
| 2026-05-04 05:21 | 56.64198 | 13.50605 | 30789 ft | 520 kts | 54° |
| 2026-05-04 05:22 | 56.68291 | 13.61458 | 30790 ft | 521 kts | 54° |
| 2026-05-04 05:22 | 56.72381 | 13.72350 | 30787 ft | 521 kts | 54° |
| 2026-05-04 05:23 | 56.76466 | 13.83275 | 30791 ft | 522 kts | 54° |
| 2026-05-04 05:23 | 56.80532 | 13.94186 | 30788 ft | 523 kts | 54° |
| 2026-05-04 05:24 | 56.84615 | 14.05188 | 30781 ft | 523 kts | 54° |
| 2026-05-04 05:24 | 56.88690 | 14.16224 | 30762 ft | 523 kts | 54° |
| 2026-05-04 05:25 | 56.92753 | 14.27276 | 30768 ft | 523 kts | 54° |
| 2026-05-04 05:25 | 56.96120 | 14.36476 | 30785 ft | 523 kts | 54° |
| 2026-05-04 05:26 | 57.00169 | 14.47584 | 30773 ft | 524 kts | 55° |
| 2026-05-04 05:26 | 57.04215 | 14.58734 | 30773 ft | 524 kts | 55° |
| 2026-05-04 05:28 | 57.20281 | 15.03531 | 30763 ft | 525 kts | 55° |
| 2026-05-04 05:29 | 57.24289 | 15.14836 | 30764 ft | 526 kts | 56° |
| 2026-05-04 05:29 | 57.28260 | 15.26093 | 30760 ft | 526 kts | 56° |
| 2026-05-04 05:31 | 57.44164 | 15.71708 | 30753 ft | 528 kts | 56° |
| 2026-05-04 05:32 | 57.48115 | 15.83176 | 30753 ft | 527 kts | 56° |
| 2026-05-04 05:33 | 57.54029 | 16.00446 | 30755 ft | 527 kts | 56° |
| 2026-05-04 05:33 | 57.57964 | 16.12004 | 30757 ft | 527 kts | 56° |
| 2026-05-04 05:34 | 57.61865 | 16.23518 | 30757 ft | 528 kts | 57° |
| 2026-05-04 05:34 | 57.65777 | 16.35123 | 30757 ft | 528 kts | 57° |
| 2026-05-04 05:35 | 57.69685 | 16.46771 | 30758 ft | 529 kts | 57° |
| 2026-05-04 05:35 | 57.73583 | 16.58449 | 30752 ft | 529 kts | 57° |
| 2026-05-04 05:36 | 57.77471 | 16.70152 | 30753 ft | 530 kts | 57° |
| 2026-05-04 05:36 | 57.81328 | 16.81820 | 30753 ft | 530 kts | 57° |
| 2026-05-04 05:37 | 57.85203 | 16.93603 | 30753 ft | 530 kts | 57° |
| 2026-05-04 05:37 | 57.89069 | 17.05411 | 30840 ft | 530 kts | 58° |
| 2026-05-04 05:38 | 57.94855 | 17.23201 | 30759 ft | 536 kts | 60° |
| 2026-05-04 05:38 | 57.98735 | 17.35208 | 30753 ft | 537 kts | 60° |
| 2026-05-04 05:39 | 58.04540 | 17.53281 | 30751 ft | 537 kts | 60° |
| 2026-05-04 05:40 | 58.10315 | 17.71401 | 30748 ft | 536 kts | 60° |
| 2026-05-04 05:40 | 58.14141 | 17.83486 | 30745 ft | 535 kts | 60° |
| 2026-05-04 05:41 | 58.17956 | 17.95591 | 30749 ft | 534 kts | 60° |
| 2026-05-04 05:41 | 58.21752 | 18.07718 | 30747 ft | 534 kts | 60° |
| 2026-05-04 05:42 | 58.25495 | 18.19797 | 30752 ft | 534 kts | 60° |
| 2026-05-04 05:42 | 58.29251 | 18.31990 | 30750 ft | 535 kts | 60° |
| 2026-05-04 05:43 | 58.33003 | 18.44225 | 30752 ft | 535 kts | 60° |
| 2026-05-04 05:45 | 58.47895 | 18.93401 | 30752 ft | 534 kts | 60° |
| 2026-05-04 05:47 | 58.62549 | 19.42830 | 30757 ft | 534 kts | 61° |
| 2026-05-04 05:47 | 58.66185 | 19.55263 | 30756 ft | 534 kts | 61° |
| 2026-05-04 05:48 | 58.69817 | 19.67745 | 30756 ft | 534 kts | 61° |
| 2026-05-04 05:48 | 58.73407 | 19.80152 | 30757 ft | 534 kts | 61° |
| 2026-05-04 05:49 | 58.77009 | 19.92666 | 30759 ft | 534 kts | 61° |
| 2026-05-04 05:49 | 58.80595 | 20.05194 | 30760 ft | 533 kts | 61° |
| 2026-05-04 05:51 | 58.94799 | 20.55499 | 30762 ft | 534 kts | 61° |
| 2026-05-04 05:52 | 58.98331 | 20.68182 | 30764 ft | 535 kts | 61° |
| 2026-05-04 05:52 | 59.01856 | 20.80907 | 30760 ft | 535 kts | 61° |
| 2026-05-04 05:54 | 59.17027 | 21.30498 | 30386 ft | 525 kts | 58° |
| 2026-05-04 05:55 | 59.18913 | 21.36570 | 30051 ft | 523 kts | 58° |
| 2026-05-04 05:55 | 59.20790 | 21.42633 | 29688 ft | 520 kts | 58° |
| 2026-05-04 05:55 | 59.22653 | 21.48655 | 29299 ft | 517 kts | 58° |
| 2026-05-04 05:55 | 59.24506 | 21.54658 | 28916 ft | 514 kts | 58° |
| 2026-05-04 05:56 | 59.26349 | 21.60647 | 28539 ft | 512 kts | 58° |
| 2026-05-04 05:56 | 59.28172 | 21.66593 | 28149 ft | 509 kts | 58° |
| 2026-05-04 05:56 | 59.29987 | 21.72526 | 27801 ft | 507 kts | 58° |
| 2026-05-04 05:56 | 59.31793 | 21.78442 | 27390 ft | 505 kts | 58° |
| 2026-05-04 05:57 | 59.33591 | 21.84343 | 26873 ft | 504 kts | 58° |
| 2026-05-04 05:57 | 59.35375 | 21.90215 | 26345 ft | 501 kts | 58° |
| 2026-05-04 05:57 | 59.37158 | 21.96088 | 25786 ft | 498 kts | 59° |
| 2026-05-04 05:57 | 59.38920 | 22.01905 | 25244 ft | 495 kts | 59° |
| 2026-05-04 05:58 | 59.40666 | 22.07683 | 24711 ft | 491 kts | 59° |
| 2026-05-04 05:58 | 59.42383 | 22.13379 | 24196 ft | 488 kts | 59° |
| 2026-05-04 05:58 | 59.44103 | 22.19101 | 23665 ft | 485 kts | 59° |
| 2026-05-04 05:58 | 59.45816 | 22.24811 | 23115 ft | 483 kts | 59° |
| 2026-05-04 05:59 | 59.47515 | 22.30494 | 22444 ft | 482 kts | 59° |
| 2026-05-04 05:59 | 59.49212 | 22.36175 | 21778 ft | 481 kts | 59° |
| 2026-05-04 05:59 | 59.50901 | 22.41848 | 21136 ft | 479 kts | 59° |
| 2026-05-04 05:59 | 59.52587 | 22.47528 | 20511 ft | 478 kts | 60° |
| 2026-05-04 06:00 | 59.54257 | 22.53183 | 19890 ft | 476 kts | 60° |
| 2026-05-04 06:00 | 59.55914 | 22.58809 | 19284 ft | 475 kts | 60° |
| 2026-05-04 06:00 | 59.57568 | 22.64442 | 18685 ft | 473 kts | 60° |
| 2026-05-04 06:00 | 59.59188 | 22.69967 | 18105 ft | 471 kts | 60° |
| 2026-05-04 06:01 | 59.60821 | 22.75553 | 17459 ft | 468 kts | 60° |
| 2026-05-04 06:01 | 59.62444 | 22.81117 | 16793 ft | 466 kts | 60° |
| 2026-05-04 06:03 | 59.73075 | 23.17945 | 12297 ft | 382 kts | 61° |
| 2026-05-04 06:03 | 59.74354 | 23.22433 | 11644 ft | 366 kts | 61° |
| 2026-05-04 06:05 | 59.82008 | 23.49458 | 8789 ft | 299 kts | 61° |
| 2026-05-04 06:05 | 59.84038 | 23.56677 | 8785 ft | 300 kts | 61° |
| 2026-05-04 06:05 | 59.85056 | 23.60303 | 8753 ft | 301 kts | 61° |
| 2026-05-04 06:06 | 59.86087 | 23.63947 | 8763 ft | 302 kts | 60° |
| 2026-05-04 06:06 | 59.87118 | 23.67588 | 8783 ft | 302 kts | 61° |
| 2026-05-04 06:06 | 59.88153 | 23.71243 | 8762 ft | 303 kts | 60° |
| 2026-05-04 06:06 | 59.89187 | 23.74908 | 8763 ft | 303 kts | 60° |
| 2026-05-04 06:07 | 59.90217 | 23.78566 | 8761 ft | 303 kts | 60° |
| 2026-05-04 06:07 | 59.91245 | 23.82230 | 8762 ft | 302 kts | 62° |
| 2026-05-04 06:07 | 59.92161 | 23.85991 | 8735 ft | 300 kts | 67° |
| 2026-05-04 06:07 | 59.92961 | 23.89750 | 8700 ft | 298 kts | 68° |
| 2026-05-04 06:08 | 59.93753 | 23.93580 | 8615 ft | 300 kts | 68° |
| 2026-05-04 06:08 | 59.94550 | 23.97435 | 8490 ft | 301 kts | 68° |
| 2026-05-04 06:08 | 59.95348 | 24.01270 | 8445 ft | 297 kts | 68° |
| 2026-05-04 06:08 | 59.96140 | 24.05059 | 8436 ft | 294 kts | 68° |
| 2026-05-04 06:09 | 59.96929 | 24.08824 | 8361 ft | 294 kts | 68° |
| 2026-05-04 06:09 | 59.97721 | 24.12598 | 8256 ft | 296 kts | 68° |
| 2026-05-04 06:11 | 60.03335 | 24.39409 | 7410 ft | 294 kts | 68° |
| 2026-05-04 06:11 | 60.04121 | 24.43184 | 7284 ft | 293 kts | 68° |
| 2026-05-04 06:13 | 60.09569 | 24.69559 | 6463 ft | 292 kts | 68° |
| 2026-05-04 06:14 | 60.17192 | 24.87851 | 5765 ft | 289 kts | 45° |
| 2026-05-04 06:14 | 60.18561 | 24.90822 | 5641 ft | 289 kts | 46° |
| 2026-05-04 06:15 | 60.19927 | 24.93804 | 5519 ft | 289 kts | 46° |
| 2026-05-04 06:15 | 60.21286 | 24.96777 | 5407 ft | 288 kts | 46° |
| 2026-05-04 06:15 | 60.22631 | 24.99730 | 5295 ft | 283 kts | 46° |
| 2026-05-04 06:15 | 60.23939 | 25.02608 | 5143 ft | 274 kts | 46° |
| 2026-05-04 06:16 | 60.25197 | 25.05379 | 5052 ft | 263 kts | 46° |
| 2026-05-04 06:16 | 60.26006 | 25.07163 | 5007 ft | 260 kts | 46° |
| 2026-05-04 06:16 | 60.27242 | 25.09883 | 5012 ft | 266 kts | 46° |
| 2026-05-04 06:16 | 60.28493 | 25.12644 | 4987 ft | 267 kts | 46° |
| 2026-05-04 06:17 | 60.29739 | 25.15400 | 4869 ft | 263 kts | 46° |
| 2026-05-04 06:17 | 60.31345 | 25.18962 | 4752 ft | 255 kts | 46° |
| 2026-05-04 06:17 | 60.32148 | 25.20743 | 4659 ft | 253 kts | 46° |
| 2026-05-04 06:17 | 60.33336 | 25.23377 | 4461 ft | 253 kts | 46° |
| 2026-05-04 06:18 | 60.34504 | 25.25977 | 4278 ft | 253 kts | 46° |
| 2026-05-04 06:18 | 60.35690 | 25.28602 | 4094 ft | 252 kts | 46° |
| 2026-05-04 06:18 | 60.36872 | 25.31197 | 3943 ft | 250 kts | 46° |
| 2026-05-04 06:20 | 60.46014 | 25.37257 | 3008 ft | 212 kts | 322° |
| 2026-05-04 06:20 | 60.47225 | 25.35548 | 3006 ft | 212 kts | 322° |
| 2026-05-04 06:21 | 60.47190 | 25.27034 | 3023 ft | 198 kts | 212° |
| 2026-05-04 06:21 | 60.46040 | 25.25450 | 3008 ft | 200 kts | 218° |
| 2026-05-04 06:22 | 60.44972 | 25.23655 | 2994 ft | 195 kts | 221° |
| 2026-05-04 06:22 | 60.43982 | 25.21876 | 2991 ft | 185 kts | 224° |
| 2026-05-04 06:25 | 60.34067 | 25.00111 | 510 ft | 155 kts | 227° |
| 2026-05-04 06:25 | 60.33333 | 24.98488 | 267 ft | 155 kts | 227° |
| 2026-05-04 06:26 | 60.32617 | 24.96914 | 178 ft | 144 kts | 227° |
| 2026-05-04 06:26 | 60.32060 | 24.95689 | 178 ft | 83 kts | 227° |
| 2026-05-04 06:26 | 60.31846 | 24.95307 | 179 ft | 24 kts | 203° |
| 2026-05-04 06:26 | 60.31717 | 24.95215 | 177 ft | 7 kts | 197° |
| 2026-05-04 06:27 | 60.31520 | 24.95061 | 174 ft | 9 kts | 227° |
| 2026-05-04 06:28 | 60.31470 | 24.94976 | 173 ft | 10 kts | 194° |
| 2026-05-04 06:28 | 60.31415 | 24.95044 | 173 ft | 10 kts | 131° |
| 2026-05-04 06:28 | 60.31363 | 24.95151 | 171 ft | 12 kts | 137° |
| 2026-05-04 06:28 | 60.31304 | 24.95259 | 172 ft | 12 kts | 138° |
| 2026-05-04 06:29 | 60.31243 | 24.95370 | 171 ft | 12 kts | 137° |
| 2026-05-04 06:29 | 60.31183 | 24.95480 | 171 ft | 10 kts | 137° |
| 2026-05-04 06:29 | 60.31166 | 24.95601 | 171 ft | 10 kts | 65° |
| 2026-05-04 06:29 | 60.31211 | 24.95705 | 172 ft | 10 kts | 47° |
| 2026-05-04 06:30 | 60.31230 | 24.95829 | 171 ft | 10 kts | 101° |
| 2026-05-04 06:30 | 60.31201 | 24.95973 | 169 ft | 8 kts | 134° |
| 2026-05-04 06:30 | 60.31160 | 24.96052 | 169 ft | 6 kts | 137° |
| 2026-05-04 06:30 | 60.31155 | 24.96061 | 169 ft | 0 kts | 137° |